Terminal Aerodrome Forecast
Issued by NWS

Home | Current Version | Previous Version | Text Only | Print | Product List | Glossary On
Versions: 1 2 3 4 5 6 7 8 9 10 11 12 13 14 15
000
FTUS42 KTAE 222300
TAFABY
TAF
KABY 222328Z 2300/2324 31008KT P6SM BKN110
     FM230100 02005KT P6SM SCT100
     FM230900 03005KT P6SM BKN015
     FM231500 06010G18KT P6SM SCT030=

USA.gov is the U.S. government's official web portal to all federal, state and local government web resources and services.